Time;durP1;ratioP1;P1;durP2;ratioP2;P2;SDS_P1;SDS_P2;PMS_P1;PMS_P2;Temp;Humidity;BMP_temperature;BMP_pressure;BME280_temperature;BME280_humidity;BME280_pressure;Samples;Min_cycle;Max_cycle;Signal;HPM_P1;HPM_P2
2022/07/20 00:01:32;;;;;;;1999.90;999.90;;;27.40;9.80;;;;;;4994867;28;20709;-70
2022/07/20 00:03:58;;;;;;;1999.90;999.90;;;27.30;10.50;;;;;;4994756;28;20205;-70
2022/07/20 00:06:23;;;;;;;1999.90;999.90;;;27.30;10.50;;;;;;4994237;28;20189;-70
2022/07/20 00:11:33;;;;;;;1999.90;999.90;;;27.10;10.40;;;;;;4994681;28;20701;-70
2022/07/20 00:14:01;;;;;;;1999.90;999.90;;;27.00;10.60;;;;;;4994576;28;20412;-70
2022/07/20 00:16:30;;;;;;;1999.90;999.90;;;26.90;11.10;;;;;;4994140;28;20190;-70
2022/07/20 00:18:56;;;;;;;1999.90;999.90;;;26.90;11.40;;;;;;4994367;28;20551;-70
2022/07/20 00:21:21;;;;;;;1999.90;999.90;;;26.80;12.00;;;;;;4994374;28;20496;-70
2022/07/20 00:23:47;;;;;;;1999.90;999.90;;;26.80;12.00;;;;;;4994477;28;20166;-70
2022/07/20 00:26:13;;;;;;;1999.90;999.90;;;26.70;12.00;;;;;;4994058;28;20192;-69
2022/07/20 00:28:38;;;;;;;1999.90;999.90;;;26.70;11.80;;;;;;4994317;28;20209;-70
2022/07/20 00:31:05;;;;;;;1999.90;999.90;;;26.70;11.90;;;;;;4994234;28;20169;-70
2022/07/20 00:33:31;;;;;;;1999.90;999.90;;;26.60;12.00;;;;;;4994180;28;20289;-70
2022/07/20 00:35:57;;;;;;;1999.90;999.90;;;26.60;12.40;;;;;;4993731;28;20449;-70
2022/07/20 00:38:23;;;;;;;1999.90;999.90;;;26.50;12.70;;;;;;4993951;28;20440;-70
2022/07/20 00:40:49;;;;;;;1999.90;999.90;;;26.50;12.80;;;;;;4994102;28;20231;-70
2022/07/20 00:43:15;;;;;;;1999.90;999.90;;;26.40;12.90;;;;;;4994056;28;20590;-70
2022/07/20 00:45:40;;;;;;;1999.90;999.90;;;26.20;12.70;;;;;;4993871;28;20504;-70
2022/07/20 00:48:06;;;;;;;1999.90;999.90;;;26.10;12.90;;;;;;4993607;28;20411;-70
2022/07/20 00:50:31;;;;;;;1999.90;999.90;;;26.00;12.80;;;;;;4993802;28;20170;-70
2022/07/20 00:52:59;;;;;;;1999.90;999.90;;;26.00;13.00;;;;;;4993830;28;20179;-70
2022/07/20 00:55:24;;;;;;;1999.90;999.90;;;26.00;13.80;;;;;;4993786;28;20267;-70
2022/07/20 00:57:50;;;;;;;1999.90;999.90;;;25.90;14.00;;;;;;4993356;28;20401;-70
2022/07/20 01:00:16;;;;;;;1999.90;999.90;;;25.90;14.20;;;;;;4993736;28;20170;-70
2022/07/20 01:02:42;;;;;;;1999.90;999.90;;;25.80;14.30;;;;;;4993605;28;20694;-70
2022/07/20 01:05:14;;;;;;;1999.90;999.90;;;25.80;14.40;;;;;;4993663;28;20699;-70
2022/07/20 01:07:44;;;;;;;1999.90;999.90;;;25.80;14.60;;;;;;4993421;28;20375;-70
2022/07/20 01:10:11;;;;;;;1999.90;999.90;;;25.70;14.70;;;;;;4993380;28;20877;-70
2022/07/20 01:12:38;;;;;;;1999.90;999.90;;;25.70;14.90;;;;;;4993448;28;20409;-70
2022/07/20 01:15:06;;;;;;;1999.90;999.90;;;25.60;15.60;;;;;;4993216;28;20411;-70
2022/07/20 01:17:31;;;;;;;1999.90;999.90;;;25.50;15.40;;;;;;4993081;28;20431;-70
2022/07/20 01:19:57;;;;;;;1999.90;999.90;;;25.50;15.40;;;;;;4993212;28;20426;-70
2022/07/20 01:22:23;;;;;;;1999.90;999.90;;;25.40;15.60;;;;;;4993297;28;20165;-70
2022/07/20 01:24:48;;;;;;;1999.90;999.90;;;25.40;15.90;;;;;;4993208;28;20322;-70
2022/07/20 01:27:14;;;;;;;1999.90;999.90;;;25.30;16.20;;;;;;4992922;28;20639;-70
2022/07/20 01:29:40;;;;;;;1999.90;999.90;;;25.20;16.10;;;;;;4993190;28;20178;-70
2022/07/20 01:32:05;;;;;;;1999.90;999.90;;;25.20;16.40;;;;;;4993403;28;20174;-70
2022/07/20 01:34:31;;;;;;;1999.90;999.90;;;25.10;16.60;;;;;;4993080;28;20166;-70
2022/07/20 01:36:56;;;;;;;1999.90;999.90;;;25.10;16.90;;;;;;4992656;28;20235;-70
2022/07/20 01:39:22;;;;;;;1999.90;999.90;;;25.10;17.00;;;;;;4992939;28;20327;-70
2022/07/20 01:41:52;;;;;;;1999.90;999.90;;;25.10;16.90;;;;;;4993075;28;20316;-70
2022/07/20 01:44:22;;;;;;;1999.90;999.90;;;25.10;17.00;;;;;;4993006;28;20174;-70
2022/07/20 01:46:50;;;;;;;1999.90;999.90;;;25.20;17.20;;;;;;4992705;28;20394;-70
2022/07/20 01:49:17;;;;;;;1999.90;999.90;;;25.20;17.00;;;;;;4992822;28;20388;-71
2022/07/20 01:51:43;;;;;;;1999.90;999.90;;;25.20;17.00;;;;;;4992877;28;20405;-70
2022/07/20 01:54:09;;;;;;;1999.90;999.90;;;25.30;16.80;;;;;;4992825;28;20409;-70
2022/07/20 01:56:35;;;;;;;1999.90;999.90;;;25.30;17.50;;;;;;4992533;28;20495;-70
2022/07/20 01:59:00;;;;;;;1999.90;999.90;;;25.30;17.40;;;;;;4992600;28;20452;-70
2022/07/20 02:01:26;;;;;;;1999.90;999.90;;;25.30;17.60;;;;;;4992973;28;20200;-70
2022/07/20 02:03:52;;;;;;;1999.90;999.90;;;25.30;17.70;;;;;;4992703;28;20248;-70
2022/07/20 02:06:17;;;;;;;1999.90;999.90;;;25.20;18.00;;;;;;4992275;28;20212;-70
2022/07/20 02:08:43;;;;;;;1999.90;999.90;;;25.20;18.00;;;;;;4992692;28;20182;-70
2022/07/20 02:11:08;;;;;;;1999.90;999.90;;;25.20;18.20;;;;;;4992628;28;20697;-70
2022/07/20 02:13:36;;;;;;;1999.90;999.90;;;25.10;18.40;;;;;;4992837;28;20659;-70
2022/07/20 02:16:15;;;;;;;1999.90;999.90;;;25.10;18.50;;;;;;4992165;28;20281;-70
2022/07/20 02:18:49;;;;;;;1999.90;999.90;;;25.00;18.60;;;;;;4992457;28;20455;-71
2022/07/20 02:21:16;;;;;;;1999.90;999.90;;;25.00;18.50;;;;;;4994833;28;20405;-71
2022/07/20 02:23:43;;;;;;;1999.90;999.90;;;25.00;18.60;;;;;;4996589;28;20818;-71
2022/07/20 02:26:08;;;;;;;1999.90;999.90;;;24.90;18.70;;;;;;4996063;28;20435;-71
2022/07/20 02:28:34;;;;;;;1999.90;999.90;;;24.90;18.50;;;;;;4996510;28;20914;-70
2022/07/20 02:31:00;;;;;;;1999.90;999.90;;;24.90;18.40;;;;;;4996431;28;20178;-70
2022/07/20 02:33:25;;;;;;;1999.90;999.90;;;24.90;18.40;;;;;;4996381;28;20548;-70
2022/07/20 02:35:51;;;;;;;1999.90;999.90;;;25.10;18.60;;;;;;4996128;28;20576;-71
2022/07/20 02:38:17;;;;;;;1999.90;999.90;;;25.00;18.50;;;;;;4996055;28;20272;-70
2022/07/20 02:40:42;;;;;;;1999.90;999.90;;;24.90;18.80;;;;;;4996209;28;20636;-70
2022/07/20 02:43:08;;;;;;;1999.90;999.90;;;24.90;19.10;;;;;;4996239;28;20174;-70
2022/07/20 02:45:34;;;;;;;1999.90;999.90;;;24.80;19.10;;;;;;4996166;28;20283;-71
2022/07/20 02:48:02;;;;;;;1999.90;999.90;;;24.80;19.30;;;;;;4995841;28;20531;-71
2022/07/20 02:50:33;;;;;;;1999.90;999.90;;;24.80;19.30;;;;;;4996226;28;20853;-71
2022/07/20 02:52:59;;;;;;;1999.90;999.90;;;24.70;19.50;;;;;;4996017;28;20420;-70
2022/07/20 02:55:25;;;;;;;1999.90;999.90;;;24.60;19.70;;;;;;4995945;28;20456;-71
2022/07/20 02:57:51;;;;;;;1999.90;999.90;;;24.60;19.70;;;;;;4995876;28;20403;-71
2022/07/20 03:00:17;;;;;;;1999.90;999.90;;;24.30;19.50;;;;;;4995936;28;20212;-71
2022/07/20 03:02:42;;;;;;;1999.90;999.90;;;24.10;20.20;;;;;;4995799;28;20776;-70
2022/07/20 03:05:08;;;;;;;1999.90;999.90;;;24.00;20.50;;;;;;4995785;28;20205;-70
2022/07/20 03:07:34;;;;;;;1999.90;999.90;;;24.00;20.80;;;;;;4995445;28;20174;-71
2022/07/20 03:10:00;;;;;;;1999.90;999.90;;;23.90;20.90;;;;;;4995707;28;20674;-71
2022/07/20 03:12:25;;;;;;;1999.90;999.90;;;23.90;20.90;;;;;;4995686;28;20574;-71
2022/07/20 03:14:51;;;;;;;1999.90;999.90;;;23.90;20.70;;;;;;4995739;28;20272;-71
2022/07/20 03:17:17;;;;;;;1999.90;999.90;;;24.00;21.30;;;;;;4995351;28;20165;-71
2022/07/20 03:19:44;;;;;;;1999.90;999.90;;;24.00;21.70;;;;;;4995619;28;20174;-71
2022/07/20 03:22:09;;;;;;;1999.90;999.90;;;24.00;21.50;;;;;;4995500;28;20174;-71
2022/07/20 03:24:35;;;;;;;1999.90;999.90;;;24.10;21.70;;;;;;4995827;28;20395;-71
2022/07/20 03:27:00;;;;;;;1999.90;999.90;;;24.10;21.90;;;;;;4995176;28;20189;-71
2022/07/20 03:29:26;;;;;;;1999.90;999.90;;;24.00;22.30;;;;;;4995374;28;20197;-71
2022/07/20 03:31:51;;;;;;;1999.90;999.90;;;23.90;22.70;;;;;;4995250;28;20174;-71
2022/07/20 03:34:17;;;;;;;1999.90;999.90;;;23.80;22.40;;;;;;4995356;28;20177;-71
2022/07/20 03:36:42;;;;;;;1999.90;999.90;;;23.70;23.50;;;;;;4994875;28;20197;-71
2022/07/20 03:39:08;;;;;;;1999.90;999.90;;;23.60;22.70;;;;;;4995191;28;20630;-71
2022/07/20 03:41:34;;;;;;;1999.90;999.90;;;23.70;21.10;;;;;;4995217;28;20170;-71
2022/07/20 03:43:59;;;;;;;1999.90;999.90;;;23.80;19.80;;;;;;4995210;28;20579;-70
2022/07/20 03:46:25;;;;;;;1999.90;999.90;;;24.10;18.70;;;;;;4994677;28;20245;-70
2022/07/20 03:48:50;;;;;;;1999.90;999.90;;;24.50;17.80;;;;;;4994945;28;20192;-70
2022/07/20 03:51:16;;;;;;;1999.90;999.90;;;24.90;17.00;;;;;;4994995;28;20169;-71
2022/07/20 03:53:42;;;;;;;1999.90;999.90;;;25.20;16.40;;;;;;4994962;28;20564;-71
2022/07/20 03:56:07;;;;;;;1999.90;999.90;;;25.40;16.20;;;;;;4994590;28;20188;-71
2022/07/20 03:58:33;;;;;;;1999.90;999.90;;;25.50;16.40;;;;;;4995026;28;20221;-71
2022/07/20 04:00:59;;;;;;;1999.90;999.90;;;25.50;16.90;;;;;;4994847;28;20174;-71
2022/07/20 04:03:24;;;;;;;1999.90;999.90;;;25.40;17.50;;;;;;4995033;28;20177;-71
2022/07/20 04:05:50;;;;;;;1999.90;999.90;;;25.40;17.20;;;;;;4995280;28;20316;-71
2022/07/20 04:08:16;;;;;;;1999.90;999.90;;;25.40;17.40;;;;;;4995151;28;20197;-71
2022/07/20 04:10:41;;;;;;;1999.90;999.90;;;25.40;17.40;;;;;;4995623;28;20253;-71
2022/07/20 04:13:07;;;;;;;1999.90;999.90;;;25.30;17.70;;;;;;4995070;28;20174;-71
2022/07/20 04:15:32;;;;;;;1999.90;999.90;;;25.30;18.30;;;;;;4994939;28;20220;-71
2022/07/20 04:17:58;;;;;;;1999.90;999.90;;;25.20;19.00;;;;;;4994958;28;20166;-71
2022/07/20 04:20:24;;;;;;;1999.90;999.90;;;25.30;19.20;;;;;;4994890;28;20166;-70
2022/07/20 04:22:50;;;;;;;1999.90;999.90;;;25.10;19.40;;;;;;4994371;28;20416;-71
2022/07/20 04:25:15;;;;;;;1999.90;999.90;;;25.10;20.30;;;;;;4994414;28;20181;-71
2022/07/20 04:27:44;;;;;;;1999.90;999.90;;;25.10;20.30;;;;;;4994025;28;20176;-71
2022/07/20 04:30:10;;;;;;;1999.90;999.90;;;25.10;20.60;;;;;;4994253;28;20204;-71
2022/07/20 04:32:35;;;;;;;1999.90;999.90;;;25.00;20.90;;;;;;4994229;28;20401;-71
2022/07/20 04:35:01;;;;;;;1999.90;999.90;;;25.00;20.90;;;;;;4994085;28;20431;-71
2022/07/20 04:37:27;;;;;;;1999.90;999.90;;;25.00;21.20;;;;;;4993877;28;20178;-70
2022/07/20 04:39:52;;;;;;;1999.90;999.90;;;25.00;21.80;;;;;;4994145;28;20173;-71
2022/07/20 04:42:18;;;;;;;1999.90;999.90;;;25.00;22.00;;;;;;4994068;28;20216;-71
2022/07/20 04:44:43;;;;;;;1999.90;999.90;;;24.90;22.70;;;;;;4993392;28;20205;-70
2022/07/20 04:47:09;;;;;;;1999.90;999.90;;;24.90;23.30;;;;;;4993646;28;20185;-70
2022/07/20 04:49:35;;;;;;;1999.90;999.90;;;24.80;23.80;;;;;;4993795;28;20194;-70
2022/07/20 04:52:00;;;;;;;1999.90;999.90;;;24.80;24.70;;;;;;4993888;28;20250;-71
2022/07/20 04:54:26;;;;;;;1999.90;999.90;;;24.80;26.60;;;;;;4994932;28;20709;-71
2022/07/20 04:56:52;;;;;;;1999.90;999.90;;;24.80;27.10;;;;;;4994209;28;20265;-71
2022/07/20 04:59:18;;;;;;;1999.90;999.90;;;24.70;27.40;;;;;;4995737;28;20660;-71
2022/07/20 05:01:43;;;;;;;1999.90;999.90;;;24.70;28.30;;;;;;4995252;28;20211;-71
2022/07/20 05:04:09;;;;;;;1999.90;999.90;;;24.80;29.40;;;;;;4994920;28;20196;-71
2022/07/20 05:06:35;;;;;;;1999.90;999.90;;;24.90;30.70;;;;;;4994271;28;20611;-71
2022/07/20 05:09:00;;;;;;;1999.90;999.90;;;24.90;32.30;;;;;;4994743;28;20206;-71
2022/07/20 05:11:29;;;;;;;1999.90;999.90;;;24.90;34.10;;;;;;4995158;28;20166;-71
2022/07/20 05:13:55;;;;;;;1999.90;999.90;;;25.00;35.40;;;;;;4994484;28;20246;-71
2022/07/20 05:16:21;;;;;;;1999.90;999.90;;;24.90;37.90;;;;;;4994356;28;20822;-71
2022/07/20 05:18:46;;;;;;;1999.90;999.90;;;24.90;40.60;;;;;;4994968;28;20257;-71
2022/07/20 05:21:12;;;;;;;1999.90;999.90;;;25.00;41.60;;;;;;4994711;28;20170;-71
2022/07/20 05:23:38;;;;;;;1999.90;999.90;;;25.00;43.50;;;;;;4994770;28;20173;-71
2022/07/20 05:26:03;;;;;;;1999.90;999.90;;;25.10;45.30;;;;;;4994137;28;20224;-71
2022/07/20 05:28:29;;;;;;;1999.90;999.90;;;25.20;46.70;;;;;;4994471;28;20244;-71
2022/07/20 05:30:55;;;;;;;1999.90;999.90;;;25.10;48.10;;;;;;4994194;28;20208;-71
2022/07/20 05:33:21;;;;;;;1999.90;999.90;;;25.20;51.00;;;;;;4993119;28;20165;-71
2022/07/20 05:35:49;;;;;;;1999.90;999.90;;;25.30;54.20;;;;;;4993379;28;20201;-71
2022/07/20 05:38:15;;;;;;;1999.90;999.90;;;25.40;56.80;;;;;;4993042;28;20220;-71
2022/07/20 05:40:41;;;;;;;1999.90;999.90;;;25.50;58.20;;;;;;4992972;28;20910;-72
2022/07/20 05:43:07;;;;;;;1999.90;999.90;;;25.50;59.50;;;;;;4993035;28;20436;-71
2022/07/20 05:45:32;;;;;;;1999.90;999.90;;;25.60;61.90;;;;;;4992812;28;20960;-72
2022/07/20 05:47:58;;;;;;;1999.90;999.90;;;25.60;64.50;;;;;;4992644;28;20173;-71
2022/07/20 05:50:24;;;;;;;1999.90;999.90;;;25.70;68.40;;;;;;4992865;28;20242;-71
2022/07/20 05:52:50;;;;;;;1999.90;999.90;;;25.80;69.50;;;;;;4992780;28;20177;-72
2022/07/20 05:55:15;;;;;;;1999.90;999.90;;;25.80;73.10;;;;;;4991912;28;20240;-72
2022/07/20 05:57:41;;;;;;;1999.90;999.90;;;25.80;74.50;;;;;;4992474;28;20417;-71
2022/07/20 06:00:08;;;;;;;1999.90;999.90;;;25.90;78.70;;;;;;4992764;28;20169;-71
2022/07/20 06:02:33;;;;;;;1999.90;999.90;;;25.90;79.90;;;;;;4992679;28;20170;-72
2022/07/20 06:04:59;;;;;;;1999.90;999.90;;;25.90;82.10;;;;;;4992607;28;20887;-72
2022/07/20 06:07:24;;;;;;;1999.90;999.90;;;26.00;83.80;;;;;;4992372;28;20608;-72
2022/07/20 06:09:50;;;;;;;1999.90;999.90;;;26.20;85.30;;;;;;4992595;28;20201;-72
2022/07/20 06:12:16;;;;;;;1999.90;999.90;;;26.20;83.70;;;;;;4992711;28;20651;-72
2022/07/20 06:14:44;;;;;;;1999.90;999.90;;;26.30;85.20;;;;;;4992496;28;20662;-72
2022/07/20 06:17:11;;;;;;;1999.90;999.90;;;26.40;85.40;;;;;;4992245;28;20177;-71
2022/07/20 06:19:37;;;;;;;1999.90;999.90;;;26.40;84.70;;;;;;4992603;28;20765;-72
2022/07/20 06:22:03;;;;;;;1999.90;999.90;;;26.60;84.50;;;;;;4992522;28;20413;-72
2022/07/20 06:24:28;;;;;;;1999.90;999.90;;;26.70;82.10;;;;;;4992531;28;20190;-72
2022/07/20 06:26:54;;;;;;;1999.90;999.90;;;26.90;82.90;;;;;;4992175;28;20273;-72
2022/07/20 06:29:20;;;;;;;1999.90;999.90;;;26.90;81.90;;;;;;4992388;28;20254;-72
2022/07/20 06:31:46;;;;;;;1999.90;999.90;;;27.00;84.10;;;;;;4992408;28;20400;-71
2022/07/20 06:34:13;;;;;;;1999.90;999.90;;;27.10;81.10;;;;;;4992967;28;20497;-72
2022/07/20 06:36:38;;;;;;;1999.90;999.90;;;27.10;80.50;;;;;;4993224;28;20216;-71
2022/07/20 06:39:04;;;;;;;1999.90;999.90;;;27.10;81.00;;;;;;4993038;28;20406;-72
2022/07/20 06:41:30;;;;;;;1999.90;999.90;;;26.90;79.90;;;;;;4993191;28;20220;-71
2022/07/20 06:43:55;;;;;;;1999.90;999.90;;;26.70;79.00;;;;;;4993446;28;20170;-72
2022/07/20 06:46:21;;;;;;;1999.90;999.90;;;26.60;82.10;;;;;;4992952;28;20189;-71
2022/07/20 06:48:47;;;;;;;1999.90;999.90;;;26.60;85.40;;;;;;4992221;28;20536;-71
2022/07/20 06:51:12;;;;;;;1999.90;999.90;;;26.50;89.40;;;;;;4992280;28;20166;-71
2022/07/20 06:53:38;;;;;;;1999.90;999.90;;;26.40;91.60;;;;;;4992266;28;20170;-71
2022/07/20 06:56:04;;;;;;;1999.90;999.90;;;26.40;93.60;;;;;;4992005;28;20797;-71
2022/07/20 06:58:30;;;;;;;1999.90;999.90;;;26.50;94.20;;;;;;4992216;28;20698;-71
2022/07/20 07:00:56;;;;;;;1999.90;999.90;;;26.50;93.60;;;;;;4992054;28;20421;-71
2022/07/20 07:03:21;;;;;;;1999.90;999.90;;;26.60;90.00;;;;;;4992164;28;20664;-71
2022/07/20 07:05:47;;;;;;;1999.90;999.90;;;26.50;89.40;;;;;;4992045;28;20482;-71
2022/07/20 07:08:13;;;;;;;1999.90;999.90;;;26.50;90.10;;;;;;4995340;28;20678;-70
2022/07/20 07:10:38;;;;;;;1999.90;999.90;;;26.50;90.80;;;;;;4995822;28;20174;-70
2022/07/20 07:13:04;;;;;;;1999.90;999.90;;;26.50;92.30;;;;;;4995718;28;20808;-71
2022/07/20 07:15:30;;;;;;;1999.90;999.90;;;26.50;91.90;;;;;;4995550;28;20186;-71
2022/07/20 07:17:56;;;;;;;1999.90;999.90;;;26.50;92.40;;;;;;4995351;28;20185;-71
2022/07/20 07:20:22;;;;;;;1999.90;999.90;;;26.50;92.00;;;;;;4995603;28;20409;-71
2022/07/20 07:22:47;;;;;;;1999.90;999.90;;;26.50;91.80;;;;;;4995500;28;20169;-71
2022/07/20 07:25:13;;;;;;;1999.90;999.90;;;26.40;93.70;;;;;;4995382;28;20191;-70
2022/07/20 07:27:39;;;;;;;1999.90;999.90;;;26.50;91.70;;;;;;4995134;28;20240;-71
2022/07/20 07:30:05;;;;;;;1999.90;999.90;;;26.50;91.90;;;;;;4995311;28;20284;-71
2022/07/20 07:32:31;;;;;;;1999.90;999.90;;;26.50;92.60;;;;;;4995412;28;20432;-70
2022/07/20 07:34:57;;;;;;;1999.90;999.90;;;26.30;93.20;;;;;;4995104;28;20905;-71
2022/07/20 07:37:22;;;;;;;1999.90;999.90;;;26.30;93.20;;;;;;4995176;28;20593;-71
2022/07/20 07:39:49;;;;;;;1999.90;999.90;;;26.30;93.90;;;;;;4995211;28;20193;-71
2022/07/20 07:42:14;;;;;;;1999.90;999.90;;;26.20;94.80;;;;;;4995088;28;20224;-71
2022/07/20 07:44:40;;;;;;;1999.90;999.90;;;26.20;95.00;;;;;;4995076;28;20413;-71
2022/07/20 07:47:06;;;;;;;1999.90;999.90;;;26.00;95.00;;;;;;4994722;28;20200;-71
2022/07/20 07:49:31;;;;;;;1999.90;999.90;;;26.00;97.00;;;;;;4994901;28;20193;-71
2022/07/20 07:51:57;;;;;;;1999.90;999.90;;;25.90;99.20;;;;;;4995025;28;20178;-71
2022/07/20 07:54:23;;;;;;;1999.90;999.90;;;25.90;99.90;;;;;;4995081;28;20174;-71
2022/07/20 07:56:49;;;;;;;1999.90;999.90;;;26.00;99.90;;;;;;4994497;28;20508;-71
2022/07/20 07:59:15;;;;;;;1999.90;999.90;;;25.90;99.90;;;;;;4995452;28;20435;-72
2022/07/20 08:01:40;;;;;;;1999.90;999.90;;;25.90;99.90;;;;;;4995931;28;20245;-72
2022/07/20 08:04:06;;;;;;;1999.90;999.90;;;25.90;99.90;;;;;;4996192;28;20415;-72
2022/07/20 08:06:32;;;;;;;1999.90;999.90;;;26.00;99.90;;;;;;4995682;28;20193;-72
2022/07/20 08:08:57;;;;;;;1999.90;999.90;;;26.00;99.90;;;;;;4996331;28;20212;-72
2022/07/20 08:11:24;;;;;;;1999.90;999.90;;;25.90;99.90;;;;;;4993271;28;20170;-72
2022/07/20 08:13:49;;;;;;;1999.90;999.90;;;25.90;99.90;;;;;;4994643;28;20588;-73
2022/07/20 08:16:15;;;;;;;1999.90;999.90;;;25.90;99.90;;;;;;4994607;28;20456;-72
2022/07/20 08:18:40;;;;;;;1999.90;999.90;;;25.80;99.90;;;;;;4993963;28;20193;-74
2022/07/20 08:21:06;;;;;;;1999.90;999.90;;;25.80;99.90;;;;;;4994312;28;20173;-71
2022/07/20 08:23:32;;;;;;;1999.90;999.90;;;25.80;99.90;;;;;;4994327;28;20228;-71
2022/07/20 08:25:57;;;;;;;1999.90;999.90;;;25.90;99.90;;;;;;4993810;28;20209;-70
2022/07/20 08:28:23;;;;;;;1999.90;999.90;;;25.90;99.90;;;;;;4993914;28;20170;-70
2022/07/20 08:30:51;;;;;;;1999.90;999.90;;;26.00;99.90;;;;;;4994421;28;20216;-70
2022/07/20 08:33:17;;;;;;;1999.90;999.90;;;26.10;99.90;;;;;;4994917;28;20399;-70
2022/07/20 08:35:43;;;;;;;1999.90;999.90;;;26.20;99.90;;;;;;4995376;28;21002;-71
2022/07/20 08:38:09;;;;;;;1999.90;999.90;;;26.10;99.90;;;;;;4995254;28;20173;-70
2022/07/20 08:40:36;;;;;;;1999.90;999.90;;;26.10;99.90;;;;;;4993267;28;20409;-74
2022/07/20 08:43:02;;;;;;;1999.90;999.90;;;26.10;99.90;;;;;;4993671;28;20409;-74
2022/07/20 08:45:28;;;;;;;1999.90;999.90;;;26.10;99.90;;;;;;4993188;28;20455;-73
2022/07/20 08:47:57;;;;;;;1999.90;999.90;;;26.00;99.90;;;;;;4992732;28;20433;-70
2022/07/20 08:50:24;;;;;;;1999.90;999.90;;;25.90;99.90;;;;;;4993099;28;20463;-69
2022/07/20 08:52:52;;;;;;;1999.90;999.90;;;25.90;99.90;;;;;;4993431;28;20499;-71
2022/07/20 08:55:19;;;;;;;1999.90;999.90;;;26.00;99.90;;;;;;5009276;23;21052;-70
2022/07/20 08:57:46;;;;;;;1999.90;999.90;;;26.10;99.90;;;;;;4993304;28;20412;-70
2022/07/20 09:00:13;;;;;;;1999.90;999.90;;;26.10;99.90;;;;;;4993205;28;20396;-71
2022/07/20 09:03:06;;;;;;;1999.90;999.90;;;26.40;99.90;;;;;;4992833;28;20454;-71
2022/07/20 09:05:37;;;;;;;1999.90;999.90;;;26.70;99.90;;;;;;4992797;28;20433;-71
2022/07/20 09:08:05;;;;;;;1999.90;999.90;;;27.10;99.90;;;;;;4992683;28;20424;-70
2022/07/20 09:10:34;;;;;;;1999.90;999.90;;;27.30;99.90;;;;;;4993395;28;20409;-70
2022/07/20 09:13:01;;;;;;;1999.90;999.90;;;27.60;99.90;;;;;;4993025;28;20401;-70
2022/07/20 09:15:53;;;;;;;1999.90;999.90;;;27.90;99.90;;;;;;4993335;28;20417;-72
2022/07/20 09:18:26;;;;;;;1999.90;999.90;;;28.30;99.90;;;;;;4992790;28;20416;-72
2022/07/20 09:21:03;;;;;;;1999.90;999.90;;;28.70;99.90;;;;;;4993293;28;20790;-73
2022/07/20 09:23:54;;;;;;;1999.90;999.90;;;28.90;95.80;;;;;;4992907;28;20454;-72
2022/07/20 09:26:20;;;;;;;1999.90;999.90;;;28.90;94.70;;;;;;4992375;28;20688;-72
2022/07/20 09:28:54;;;;;;;1999.90;999.90;;;29.10;93.90;;;;;;4992414;28;20779;-73
2022/07/20 09:31:30;;;;;;;1999.90;999.90;;;29.10;91.40;;;;;;4992819;28;20775;-72
2022/07/20 09:34:04;;;;;;;1999.90;999.90;;;29.00;90.80;;;;;;4992749;28;20419;-72
2022/07/20 09:36:34;;;;;;;1999.90;999.90;;;28.90;90.50;;;;;;4992414;28;20894;-72
2022/07/20 09:39:20;;;;;;;1999.90;999.90;;;28.80;90.20;;;;;;4992470;28;20929;-73
2022/07/20 09:41:56;;;;;;;1999.90;999.90;;;28.90;90.60;;;;;;4992710;28;20440;-72
2022/07/20 09:44:24;;;;;;;1999.90;999.90;;;28.90;89.70;;;;;;4992696;28;20419;-72
2022/07/20 09:46:50;;;;;;;1999.90;999.90;;;28.90;89.20;;;;;;4992136;28;20440;-72
2022/07/20 09:49:15;;;;;;;1999.90;999.90;;;29.00;90.00;;;;;;4992394;28;20973;-73
2022/07/20 09:51:56;;;;;;;1999.90;999.90;;;29.10;87.60;;;;;;4992489;28;20177;-73
2022/07/20 09:54:22;;;;;;;1999.90;999.90;;;29.20;85.90;;;;;;4992339;28;20308;-73
2022/07/20 09:56:50;;;;;;;1999.90;999.90;;;29.40;84.20;;;;;;4989011;28;20548;-73
2022/07/20 09:59:17;;;;;;;1999.90;999.90;;;29.60;83.10;;;;;;4991933;28;20181;-74
2022/07/20 10:01:46;;;;;;;1999.90;999.90;;;29.70;80.60;;;;;;4991833;28;20457;-74
2022/07/20 10:04:13;;;;;;;1999.90;999.90;;;30.00;77.80;;;;;;4991440;28;20815;-73
2022/07/20 10:06:42;;;;;;;1999.90;999.90;;;29.90;71.20;;;;;;4991510;28;20476;-72
2022/07/20 10:09:09;;;;;;;1999.90;999.90;;;29.80;70.00;;;;;;4991653;28;20475;-73
2022/07/20 10:11:36;;;;;;;1999.90;999.90;;;29.60;69.50;;;;;;4991408;28;20412;-73
2022/07/20 10:14:04;;;;;;;1999.90;999.90;;;29.40;69.60;;;;;;4991715;28;20487;-73
2022/07/20 10:16:37;;;;;;;1999.90;999.90;;;29.30;69.80;;;;;;4991462;28;20448;-73
2022/07/20 10:19:05;;;;;;;1999.90;999.90;;;29.50;69.30;;;;;;4993223;28;20417;-72
2022/07/20 10:21:38;;;;;;;1999.90;999.90;;;29.50;67.20;;;;;;4998117;28;20736;-72
2022/07/20 10:24:14;;;;;;;1999.90;999.90;;;29.40;62.10;;;;;;5008123;28;20444;-70
2022/07/20 10:26:40;;;;;;;1999.90;999.90;;;29.30;62.00;;;;;;5007789;28;20451;-71
2022/07/20 10:29:05;;;;;;;1999.90;999.90;;;29.30;63.60;;;;;;4992059;28;20448;-73
2022/07/20 10:31:52;;;;;;;1999.90;999.90;;;29.40;63.20;;;;;;4992193;28;20413;-74
2022/07/20 10:34:39;;;;;;;1999.90;999.90;;;29.30;64.20;;;;;;4991963;28;20602;-74
2022/07/20 10:37:39;;;;;;;1999.90;999.90;;;29.30;64.40;;;;;;4991782;28;20857;-73
2022/07/20 10:40:10;;;;;;;1999.90;999.90;;;29.00;65.20;;;;;;4992085;28;20417;-74
2022/07/20 10:42:38;;;;;;;1999.90;999.90;;;29.00;66.40;;;;;;4994924;28;20504;-74
2022/07/20 10:45:19;;;;;;;1999.90;999.90;;;29.00;65.00;;;;;;4995613;28;20430;-74
2022/07/20 10:48:00;;;;;;;1999.90;999.90;;;28.80;63.50;;;;;;4995408;28;20841;-73
2022/07/20 10:50:32;;;;;;;1999.90;999.90;;;28.90;65.60;;;;;;4997251;28;20448;-74
2022/07/20 10:53:13;;;;;;;1999.90;999.90;;;28.90;64.90;;;;;;4997121;28;20400;-74
2022/07/20 10:55:38;;;;;;;1999.90;999.90;;;28.90;65.10;;;;;;4995258;28;20564;-73
2022/07/20 10:58:19;;;;;;;1999.90;999.90;;;29.00;64.00;;;;;;4995971;28;20444;-74
2022/07/20 11:00:47;;;;;;;1999.90;999.90;;;29.10;63.50;;;;;;4995441;28;20601;-74
2022/07/20 11:03:17;;;;;;;1999.90;999.90;;;29.30;62.60;;;;;;4995624;28;20412;-74
2022/07/20 11:05:44;;;;;;;1999.90;999.90;;;29.70;61.80;;;;;;4995853;28;20424;-74
2022/07/20 11:08:11;;;;;;;1999.90;999.90;;;29.80;58.10;;;;;;4995227;28;20499;-74
2022/07/20 11:10:39;;;;;;;1999.90;999.90;;;29.80;58.30;;;;;;4995619;28;20483;-74
2022/07/20 11:13:07;;;;;;;1999.90;999.90;;;29.90;57.40;;;;;;4996029;28;20403;-74
2022/07/20 11:15:44;;;;;;;1999.90;999.90;;;29.80;57.50;;;;;;4996136;28;20425;-73
2022/07/20 11:18:11;;;;;;;1999.90;999.90;;;30.00;57.30;;;;;;4994995;28;20463;-74
2022/07/20 11:20:51;;;;;;;1999.90;999.90;;;30.20;55.20;;;;;;4995761;28;20428;-73
2022/07/20 11:23:18;;;;;;;1999.90;999.90;;;30.20;53.40;;;;;;4995813;28;20401;-74
2022/07/20 11:25:52;;;;;;;1999.90;999.90;;;30.30;53.90;;;;;;4994654;28;20435;-73
2022/07/20 11:28:22;;;;;;;1999.90;999.90;;;30.50;52.90;;;;;;4995239;28;20834;-74
2022/07/20 11:30:50;;;;;;;1999.90;999.90;;;30.70;50.70;;;;;;4994833;28;20415;-74
2022/07/20 11:33:43;;;;;;;1999.90;999.90;;;30.70;49.90;;;;;;4994127;28;20408;-74
2022/07/20 11:36:11;;;;;;;1999.90;999.90;;;31.10;49.20;;;;;;5040931;23;20900;-68
2022/07/20 11:38:52;;;;;;;1999.90;999.90;;;31.40;47.60;;;;;;5014087;28;20423;-68
2022/07/20 11:41:23;;;;;;;1999.90;999.90;;;31.30;45.20;;;;;;5013501;28;20916;-68
2022/07/20 11:43:51;;;;;;;1999.90;999.90;;;31.20;46.00;;;;;;5013860;28;20412;-69
2022/07/20 11:46:19;;;;;;;1999.90;999.90;;;31.40;45.00;;;;;;5013835;28;20481;-68
2022/07/20 11:48:56;;;;;;;1999.90;999.90;;;31.60;44.10;;;;;;5013682;28;20455;-68
2022/07/20 11:51:23;;;;;;;1999.90;999.90;;;31.70;42.60;;;;;;5013858;28;20486;-66
2022/07/20 11:53:49;;;;;;;1999.90;999.90;;;31.70;42.50;;;;;;5012539;28;20404;-68
2022/07/20 11:56:17;;;;;;;1999.90;999.90;;;32.00;41.40;;;;;;5013337;28;20420;-68
2022/07/20 11:58:45;;;;;;;1999.90;999.90;;;32.20;40.50;;;;;;5013852;28;20448;-68
2022/07/20 12:01:14;;;;;;;1999.90;999.90;;;32.60;39.50;;;;;;5013578;28;20408;-68
2022/07/20 12:03:42;;;;;;;1999.90;999.90;;;32.50;37.60;;;;;;5013736;28;20407;-68